Time;durP1;ratioP1;P1;durP2;ratioP2;P2;SDS_P1;SDS_P2;PMS_P1;PMS_P2;Temp;Humidity;BMP_temperature;BMP_pressure;BME280_temperature;BME280_humidity;BME280_pressure;Samples;Min_cycle;Max_cycle;Signal;HPM_P1;HPM_P2
2022/01/12 00:01:11;;;;;;;1999.90;999.90;;;;;;;-2.17;63.00;103148.25;4995799;28;100896;-74
2022/01/12 00:03:39;;;;;;;1999.90;999.90;;;;;;;-2.17;62.45;103153.47;5004832;28;97729;-74
2022/01/12 00:06:07;;;;;;;1999.90;999.90;;;;;;;-2.16;62.87;103149.16;4998865;28;96813;-74
2022/01/12 00:08:35;;;;;;;1999.90;999.90;;;;;;;-2.16;63.17;103143.94;4988107;28;96891;-74
2022/01/12 00:11:05;;;;;;;1999.90;999.90;;;;;;;-2.14;63.12;103138.16;4990124;28;99378;-73
2022/01/12 00:13:35;;;;;;;1999.90;999.90;;;;;;;-2.12;62.89;103138.31;4987238;28;98683;-73
2022/01/12 00:16:03;;;;;;;1999.90;999.90;;;;;;;-2.12;62.41;103135.69;4964027;28;98969;-73
2022/01/12 00:18:31;;;;;;;1999.90;999.90;;;;;;;-2.13;62.26;103132.19;4981753;28;98347;-72
2022/01/12 00:20:59;;;;;;;1999.90;999.90;;;;;;;-2.13;62.97;103132.19;4978520;28;100219;-73
2022/01/12 00:23:27;;;;;;;1999.90;999.90;;;;;;;-2.14;62.98;103130.31;4982155;28;97511;-73
2022/01/12 00:26:04;;;;;;;1999.90;999.90;;;;;;;-2.14;62.92;103129.38;4986274;28;96850;-73
2022/01/12 00:34:11;;;;;;;1999.90;999.90;;;;;;;-2.20;62.48;103115.66;4988924;28;98861;-74
2022/01/12 00:36:39;;;;;;;1999.90;999.90;;;;;;;-2.20;62.68;103120.88;4987445;28;97081;-74
2022/01/12 00:39:08;;;;;;;1999.90;999.90;;;;;;;-2.23;63.20;103121.44;4987634;28;98140;-74
2022/01/12 00:41:37;;;;;;;1999.90;999.90;;;;;;;-2.25;63.41;103120.38;4986774;28;97124;-74
2022/01/12 00:44:09;;;;;;;1999.90;999.90;;;;;;;-2.33;63.37;103120.28;4988739;28;97346;-74
2022/01/12 00:46:38;;;;;;;1999.90;999.90;;;;;;;-2.32;63.44;103110.03;4969308;28;98217;-74
2022/01/12 00:49:06;;;;;;;1999.90;999.90;;;;;;;-2.33;63.85;103108.19;4984858;28;96809;-73
2022/01/12 00:51:36;;;;;;;1999.90;999.90;;;;;;;-2.34;63.59;103106.31;4986184;28;98749;-73
2022/01/12 00:54:04;;;;;;;1999.90;999.90;;;;;;;-2.33;63.76;103116.00;4981199;28;97081;-73
2022/01/12 00:56:32;;;;;;;1999.90;999.90;;;;;;;-2.31;63.48;103122.28;4985932;28;98902;-73
2022/01/12 00:59:01;;;;;;;1999.90;999.90;;;;;;;-2.35;63.99;103127.94;4986610;28;98718;-72
2022/01/12 01:01:30;;;;;;;1999.90;999.90;;;;;;;-2.36;63.89;103123.47;4980800;28;97664;-72
2022/01/12 01:03:58;;;;;;;1999.90;999.90;;;;;;;-2.34;63.03;103124.56;4988567;28;99346;-72
2022/01/12 01:06:26;;;;;;;1999.90;999.90;;;;;;;-2.34;63.83;103121.03;5002863;28;97296;-73
2022/01/12 01:08:53;;;;;;;1999.90;999.90;;;;;;;-2.32;63.98;103123.06;4966345;28;97164;-71
2022/01/12 01:11:26;;;;;;;1999.90;999.90;;;;;;;-2.31;63.18;103122.28;4984056;28;98725;-72
2022/01/12 01:14:00;;;;;;;1999.90;999.90;;;;;;;-2.31;63.20;103121.38;4987648;28;100747;-72
2022/01/12 01:16:47;;;;;;;1999.90;999.90;;;;;;;-2.31;63.34;103124.91;4981895;28;98770;-72
2022/01/12 01:27:35;;;;;;;1999.90;999.90;;;;;;;-2.38;63.17;103119.78;4983641;28;96951;-73
2022/01/12 01:30:03;;;;;;;1999.90;999.90;;;;;;;-2.40;63.38;103123.88;4986712;28;96948;-73
2022/01/12 01:32:35;;;;;;;1999.90;999.90;;;;;;;-2.40;63.61;103126.50;4969722;28;100131;-72
2022/01/12 01:35:04;;;;;;;1999.90;999.90;;;;;;;-2.40;63.60;103123.88;4982228;28;97689;-72
2022/01/12 01:37:31;;;;;;;1999.90;999.90;;;;;;;-2.37;63.80;103120.69;4987085;28;97051;-74
2022/01/12 01:39:59;;;;;;;1999.90;999.90;;;;;;;-2.36;63.78;103126.06;5003993;28;97316;-73
2022/01/12 01:42:40;;;;;;;1999.90;999.90;;;;;;;-2.34;63.15;103110.59;4982032;28;98275;-72
2022/01/12 01:53:30;;;;;;;1999.90;999.90;;;;;;;-2.43;63.43;103107.91;4984312;28;100391;-71
2022/01/12 01:55:58;;;;;;;1999.90;999.90;;;;;;;-2.47;63.46;103113.53;4970768;28;100791;-73
2022/01/12 01:58:26;;;;;;;1999.90;999.90;;;;;;;-2.51;63.68;103115.66;4985494;28;97369;-73
2022/01/12 02:00:54;;;;;;;1999.90;999.90;;;;;;;-2.53;64.16;103118.09;4984172;28;96819;-73
2022/01/12 02:03:29;;;;;;;1999.90;999.90;;;;;;;-2.51;63.56;103116.56;4968559;28;100137;-73
2022/01/12 02:06:00;;;;;;;1999.90;999.90;;;;;;;-2.51;63.97;103116.56;4967915;28;99923;-73
2022/01/12 02:08:28;;;;;;;1999.90;999.90;;;;;;;-2.55;64.13;103118.69;4985351;28;97057;-72
2022/01/12 02:11:05;;;;;;;1999.90;999.90;;;;;;;-2.59;63.96;103125.22;4981416;28;96883;-73
2022/01/12 02:13:35;;;;;;;1999.90;999.90;;;;;;;-2.59;64.41;103112.22;4985547;28;101844;-72
2022/01/12 02:16:02;;;;;;;1999.90;999.90;;;;;;;-2.59;63.87;103117.41;4985881;28;99005;-73
2022/01/12 02:19:03;;;;;;;1999.90;999.90;;;;;;;-2.60;63.89;103120.75;4968603;28;96798;-72
2022/01/12 02:35:34;;;;;;;1999.90;999.90;;;;;;;-2.50;64.21;103140.97;4981538;28;100753;-73
2022/01/12 02:40:48;;;;;;;1999.90;999.90;;;;;;;-2.47;63.90;103134.41;4983894;28;96780;-73
2022/01/12 02:43:28;;;;;;;1999.90;999.90;;;;;;;-2.43;63.65;103141.81;4985548;28;96920;-73
2022/01/12 02:53:37;;;;;;;1999.90;999.90;;;;;;;-2.39;63.49;103130.03;4985016;28;96749;-72
2022/01/12 02:54:23;;;;;;;1999.90;999.90;;;;;;;-2.43;63.20;103128.78;4966877;28;96751;-73
2022/01/12 02:56:51;;;;;;;1999.90;999.90;;;;;;;-2.44;63.32;103129.53;4968992;28;102747;-72
2022/01/12 02:59:19;;;;;;;1999.90;999.90;;;;;;;-2.43;63.62;103133.06;4985601;28;97189;-73
2022/01/12 03:02:08;;;;;;;1999.90;999.90;;;;;;;-2.43;63.63;103130.44;4965178;28;97261;-73
2022/01/12 03:04:38;;;;;;;1999.90;999.90;;;;;;;-2.42;63.48;103133.25;4981389;28;96906;-73
2022/01/12 03:07:15;;;;;;;1999.90;999.90;;;;;;;-2.40;63.64;103136.03;4961417;28;99063;-73
2022/01/12 03:10:00;;;;;;;1999.90;999.90;;;;;;;-2.39;63.33;103130.03;4981479;28;99075;-73
2022/01/12 03:12:28;;;;;;;1999.90;999.90;;;;;;;-2.39;63.73;103138.78;4980865;28;96901;-73
2022/01/12 03:14:56;;;;;;;1999.90;999.90;;;;;;;-2.36;63.72;103146.94;4971725;28;97322;-73
2022/01/12 03:17:25;;;;;;;1999.90;999.90;;;;;;;-2.35;63.70;103140.97;4966046;28;98759;-74
2022/01/12 03:19:53;;;;;;;1999.90;999.90;;;;;;;-2.35;63.13;103140.97;5003821;28;97460;-72
2022/01/12 03:22:20;;;;;;;1999.90;999.90;;;;;;;-2.34;63.62;103142.81;4984713;28;97520;-73
2022/01/12 03:24:48;;;;;;;1999.90;999.90;;;;;;;-2.33;63.27;103143.75;4987611;28;97016;-72
2022/01/12 03:27:17;;;;;;;1999.90;999.90;;;;;;;-2.33;63.60;103136.88;4991151;28;101283;-73
2022/01/12 03:29:50;;;;;;;1999.90;999.90;;;;;;;-2.33;63.31;103131.66;4969145;28;100529;-75
2022/01/12 03:32:24;;;;;;;1999.90;999.90;;;;;;;-2.33;63.74;103134.25;4985002;28;96986;-73
2022/01/12 03:35:05;;;;;;;1999.90;999.90;;;;;;;-2.34;63.49;103127.19;4990374;28;96719;-73
2022/01/12 03:37:41;;;;;;;1999.90;999.90;;;;;;;-2.33;63.04;103128.09;5003468;28;97977;-72
2022/01/12 03:40:11;;;;;;;1999.90;999.90;;;;;;;-2.38;63.36;103124.97;4988553;28;97884;-73
2022/01/12 03:42:40;;;;;;;1999.90;999.90;;;;;;;-2.42;63.93;103127.09;4972412;28;97061;-73
2022/01/12 03:45:09;;;;;;;1999.90;999.90;;;;;;;-2.47;63.48;103123.06;4973767;28;97271;-73
2022/01/12 03:47:37;;;;;;;1999.90;999.90;;;;;;;-2.50;63.42;103122.72;4975578;28;100267;-73
2022/01/12 03:50:06;;;;;;;1999.90;999.90;;;;;;;-2.51;64.01;103124.38;5008174;28;97835;-72
2022/01/12 03:52:33;;;;;;;1999.90;999.90;;;;;;;-2.53;63.74;103115.50;4989499;28;96872;-73
2022/01/12 03:55:02;;;;;;;1999.90;999.90;;;;;;;-2.52;63.54;103119.94;4989561;28;96988;-73
2022/01/12 03:57:30;;;;;;;1999.90;999.90;;;;;;;-2.55;63.42;103118.69;4971386;28;98882;-73
2022/01/12 03:59:59;;;;;;;1999.90;999.90;;;;;;;-2.56;64.26;103115.13;4986491;28;97679;-73
2022/01/12 04:02:27;;;;;;;1999.90;999.90;;;;;;;-2.61;63.44;103123.19;4971608;28;97285;-73
2022/01/12 04:05:10;;;;;;;1999.90;999.90;;;;;;;-2.62;64.28;103119.69;4971648;28;96803;-73
2022/01/12 04:10:24;;;;;;;1999.90;999.90;;;;;;;-2.59;63.55;103122.63;4986302;28;97003;-73
2022/01/12 04:12:53;;;;;;;1999.90;999.90;;;;;;;-2.58;63.84;103119.25;4988153;28;97002;-73
2022/01/12 04:15:23;;;;;;;1999.90;999.90;;;;;;;-2.53;63.88;103120.72;4988556;28;96915;-73
2022/01/12 04:17:50;;;;;;;1999.90;999.90;;;;;;;-2.55;63.78;103106.59;4988466;28;97336;-73
2022/01/12 04:20:19;;;;;;;1999.90;999.90;;;;;;;-2.55;63.37;103116.06;4987794;28;99175;-73
2022/01/12 04:25:32;;;;;;;1999.90;999.90;;;;;;;-2.56;64.08;103115.13;4986165;28;96973;-74
2022/01/12 04:28:00;;;;;;;1999.90;999.90;;;;;;;-2.58;63.92;103108.81;4984397;28;98229;-71
2022/01/12 04:30:29;;;;;;;1999.90;999.90;;;;;;;-2.61;63.50;103111.09;5000519;28;99075;-73
2022/01/12 04:32:57;;;;;;;1999.90;999.90;;;;;;;-2.60;63.46;103114.66;4973336;28;97123;-73
2022/01/12 04:35:30;;;;;;;1999.90;999.90;;;;;;;-2.60;63.75;103114.66;4969643;28;97097;-72
2022/01/12 04:37:58;;;;;;;1999.90;999.90;;;;;;;-2.59;63.47;103121.69;4985764;28;98229;-73
2022/01/12 04:40:26;;;;;;;1999.90;999.90;;;;;;;-2.56;64.23;103120.34;4971671;28;99261;-73
2022/01/12 04:42:54;;;;;;;1999.90;999.90;;;;;;;-2.56;63.66;103115.13;4971260;28;96848;-73
2022/01/12 04:45:37;;;;;;;1999.90;999.90;;;;;;;-2.56;64.16;103107.31;4968678;28;96991;-72
2022/01/12 04:48:32;;;;;;;1999.90;999.90;;;;;;;-2.56;64.13;103106.41;4970472;28;99663;-72
2022/01/12 04:51:02;;;;;;;1999.90;999.90;;;;;;;-2.53;63.46;103117.16;4983396;28;98254;-71
2022/01/12 04:53:34;;;;;;;1999.90;999.90;;;;;;;-2.56;63.95;103115.13;4966232;28;96983;-72
2022/01/12 04:56:03;;;;;;;1999.90;999.90;;;;;;;-2.63;63.53;103123.03;4988023;28;96582;-74
2022/01/12 04:58:30;;;;;;;1999.90;999.90;;;;;;;-2.67;63.61;103117.34;5003486;28;97080;-71
2022/01/12 05:01:06;;;;;;;1999.90;999.90;;;;;;;-2.70;63.62;103123.13;4984804;28;98823;-72
2022/01/12 05:06:45;;;;;;;1999.90;999.90;;;;;;;-2.72;64.04;103149.75;4984473;28;99508;-72
2022/01/12 05:09:40;;;;;;;1999.90;999.90;;;;;;;-2.72;64.22;103132.44;4967848;28;100463;-73
2022/01/12 05:15:01;;;;;;;1999.90;999.90;;;;;;;-2.63;64.28;103162.13;4950906;28;97020;-74
2022/01/12 05:17:29;;;;;;;1999.90;999.90;;;;;;;-2.60;64.10;103162.47;4983839;28;98181;-73
2022/01/12 05:19:58;;;;;;;1999.90;999.90;;;;;;;-2.56;63.80;103158.53;4984933;28;98842;-73
2022/01/12 05:22:26;;;;;;;1999.90;999.90;;;;;;;-2.54;63.63;103149.19;4980594;28;98747;-73
2022/01/12 05:24:54;;;;;;;1999.90;999.90;;;;;;;-2.52;64.10;103139.84;4968245;28;96891;-73
2022/01/12 05:27:27;;;;;;;1999.90;999.90;;;;;;;-2.49;63.32;103137.63;4974860;28;97212;-73
2022/01/12 05:29:55;;;;;;;1999.90;999.90;;;;;;;-2.47;63.58;103128.28;4980444;28;99008;-74
2022/01/12 05:32:25;;;;;;;1999.90;999.90;;;;;;;-2.46;63.68;103125.84;4966235;28;100790;-76
2022/01/12 05:34:57;;;;;;;1999.90;999.90;;;;;;;-2.43;63.04;103126.16;4970967;28;96765;-72
2022/01/12 05:37:27;;;;;;;1999.90;999.90;;;;;;;-2.40;63.13;103129.09;4985844;28;98717;-70
2022/01/12 05:39:54;;;;;;;1999.90;999.90;;;;;;;-2.44;63.81;103129.53;4984440;28;99754;-71
2022/01/12 05:42:27;;;;;;;1999.90;999.90;;;;;;;-2.51;64.06;103141.72;4979320;28;97288;-71
2022/01/12 05:44:55;;;;;;;1999.90;999.90;;;;;;;-2.58;63.96;103140.09;4987854;28;96750;-72
2022/01/12 05:47:37;;;;;;;1999.90;999.90;;;;;;;-2.56;63.33;103136.00;4983527;28;97582;-71
2022/01/12 05:50:06;;;;;;;1999.90;999.90;;;;;;;-2.51;63.75;103140.03;4983033;28;98129;-71
2022/01/12 05:52:35;;;;;;;1999.90;999.90;;;;;;;-2.48;64.06;103126.41;4983218;28;99711;-72
2022/01/12 05:55:04;;;;;;;1999.90;999.90;;;;;;;-2.43;63.64;103131.38;4979616;28;97558;-71
2022/01/12 05:57:33;;;;;;;1999.90;999.90;;;;;;;-2.39;63.67;103130.97;4984374;28;99574;-72
2022/01/12 06:00:00;;;;;;;1999.90;999.90;;;;;;;-2.36;62.81;103131.28;4976885;28;96732;-71
2022/01/12 06:02:41;;;;;;;1999.90;999.90;;;;;;;-2.46;63.95;103133.66;4981525;28;99429;-71
2022/01/12 06:05:14;;;;;;;1999.90;999.90;;;;;;;-2.43;63.57;103126.16;4970236;28;96890;-72
2022/01/12 06:07:43;;;;;;;1999.90;999.90;;;;;;;-2.40;63.83;103136.91;5001806;28;96923;-71
2022/01/12 06:10:12;;;;;;;1999.90;999.90;;;;;;;-2.42;63.24;103137.53;4987492;28;99424;-71
2022/01/12 06:12:40;;;;;;;1999.90;999.90;;;;;;;-2.38;63.06;103131.91;4971777;28;97622;-71
2022/01/12 06:15:09;;;;;;;1999.90;999.90;;;;;;;-2.36;63.05;103138.22;4972529;28;96838;-70
2022/01/12 06:17:37;;;;;;;1999.90;999.90;;;;;;;-2.38;63.76;103135.41;4989785;28;96757;-71
2022/01/12 06:20:08;;;;;;;1999.90;999.90;;;;;;;-2.43;63.30;103147.03;4983956;28;96970;-72
2022/01/12 06:22:55;;;;;;;1999.90;999.90;;;;;;;-2.42;62.78;103147.97;4987036;28;97928;-72
2022/01/12 06:25:23;;;;;;;1999.90;999.90;;;;;;;-2.50;63.19;103149.72;4983991;28;97145;-71
2022/01/12 06:27:53;;;;;;;1999.90;999.90;;;;;;;-2.58;63.63;103145.31;4984929;28;97065;-71
2022/01/12 06:33:09;;;;;;;1999.90;999.90;;;;;;;-2.66;63.79;103153.97;4988666;28;97518;-72
2022/01/12 06:35:37;;;;;;;1999.90;999.90;;;;;;;-2.64;63.72;103155.09;4989685;28;97033;-72
2022/01/12 06:38:06;;;;;;;1999.90;999.90;;;;;;;-2.59;63.62;103143.47;4984080;28;98030;-72
2022/01/12 06:40:34;;;;;;;1999.90;999.90;;;;;;;-2.72;63.55;103155.91;4986328;28;97653;-72
2022/01/12 06:43:02;;;;;;;1999.90;999.90;;;;;;;-2.74;63.90;103167.81;4987583;28;98657;-72
2022/01/12 06:45:32;;;;;;;1999.90;999.90;;;;;;;-2.76;64.20;103178.84;4970278;28;97350;-72
2022/01/12 06:48:00;;;;;;;1999.90;999.90;;;;;;;-2.75;64.28;103170.25;5002958;28;98386;-74
2022/01/12 06:50:27;;;;;;;1999.90;999.90;;;;;;;-2.74;64.25;103173.03;4986104;28;98769;-72
2022/01/12 06:52:55;;;;;;;1999.90;999.90;;;;;;;-2.71;64.25;103168.19;4970903;28;100221;-72
2022/01/12 06:55:24;;;;;;;1999.90;999.90;;;;;;;-2.68;63.92;103165.91;4989951;28;97466;-72
2022/01/12 06:57:52;;;;;;;1999.90;999.90;;;;;;;-2.68;63.57;103157.16;5000392;28;96978;-72
2022/01/12 07:00:19;;;;;;;1999.90;999.90;;;;;;;-2.67;63.55;103164.25;4998837;28;97656;-74
2022/01/12 07:02:48;;;;;;;1999.90;999.90;;;;;;;-2.66;63.64;103172.22;4988989;28;97710;-73
2022/01/12 07:05:17;;;;;;;1999.90;999.90;;;;;;;-2.65;64.35;103166.25;4971837;28;97130;-72
2022/01/12 07:07:45;;;;;;;1999.90;999.90;;;;;;;-2.61;63.61;103160.63;4974413;28;98294;-71
2022/01/12 07:10:28;;;;;;;1999.90;999.90;;;;;;;-2.63;63.77;103162.13;4975590;28;102971;-71
2022/01/12 07:13:01;;;;;;;1999.90;999.90;;;;;;;-2.58;63.37;103158.34;5007801;28;98985;-72
2022/01/12 07:15:28;;;;;;;1999.90;999.90;;;;;;;-2.54;63.75;103154.41;5008174;28;97170;-72
2022/01/12 07:17:56;;;;;;;1999.90;999.90;;;;;;;-2.51;63.28;103155.66;4974229;28;97117;-72
2022/01/12 07:20:24;;;;;;;1999.90;999.90;;;;;;;-2.49;63.47;103154.16;4973488;28;98433;-72
2022/01/12 07:22:52;;;;;;;1999.90;999.90;;;;;;;-2.54;63.44;103157.00;4989158;28;97972;-72
2022/01/12 07:25:20;;;;;;;1999.90;999.90;;;;;;;-2.57;63.48;103151.47;4990645;28;97098;-71
2022/01/12 07:27:49;;;;;;;1999.90;999.90;;;;;;;-2.60;63.66;103154.63;4992510;28;98243;-72
2022/01/12 07:30:17;;;;;;;1999.90;999.90;;;;;;;-2.60;63.27;103172.88;4990480;28;98783;-71
2022/01/12 07:32:45;;;;;;;1999.90;999.90;;;;;;;-2.60;63.71;103172.00;4989961;28;100568;-71
2022/01/12 07:35:13;;;;;;;1999.90;999.90;;;;;;;-2.59;63.19;103179.97;4992599;28;97035;-73
2022/01/12 07:37:41;;;;;;;1999.90;999.90;;;;;;;-2.54;63.25;103180.47;4989708;28;96769;-72
2022/01/12 07:40:09;;;;;;;1999.90;999.90;;;;;;;-2.56;63.94;103175.09;4990593;28;98510;-73
2022/01/12 07:42:37;;;;;;;1999.90;999.90;;;;;;;-2.52;63.63;103168.53;4991234;28;99024;-71
2022/01/12 07:45:14;;;;;;;1999.90;999.90;;;;;;;-2.51;63.54;103168.69;5005441;28;97363;-70
2022/01/12 07:47:42;;;;;;;1999.90;999.90;;;;;;;-2.51;63.60;103170.41;5007866;28;98233;-69
2022/01/12 07:50:11;;;;;;;1999.90;999.90;;;;;;;-2.53;63.71;103177.13;4990188;28;100053;-71
2022/01/12 07:52:39;;;;;;;1999.90;999.90;;;;;;;-2.51;63.15;103173.00;4991293;28;97514;-70
2022/01/12 07:55:08;;;;;;;1999.90;999.90;;;;;;;-2.49;63.58;103185.44;4971063;28;96842;-72
2022/01/12 07:57:36;;;;;;;1999.90;999.90;;;;;;;-2.41;63.75;103195.06;4991512;28;97190;-70
2022/01/12 08:00:04;;;;;;;1999.90;999.90;;;;;;;-2.38;62.80;103207.50;4989142;28;98949;-70
2022/01/12 08:02:39;;;;;;;1999.90;999.90;;;;;;;-2.38;62.58;103218.84;4985106;28;98652;-70
2022/01/12 08:05:09;;;;;;;1999.90;999.90;;;;;;;-2.38;63.42;103216.22;4989709;28;96932;-70
2022/01/12 08:07:39;;;;;;;1999.90;999.90;;;;;;;-2.37;62.60;103212.91;4991172;28;96780;-70
2022/01/12 08:10:08;;;;;;;1999.90;999.90;;;;;;;-2.29;62.81;103200.72;4988819;28;100520;-71
2022/01/12 08:12:37;;;;;;;1999.90;999.90;;;;;;;-2.24;63.11;103208.28;4991466;28;97673;-70
2022/01/12 08:15:06;;;;;;;1999.90;999.90;;;;;;;-2.17;61.96;103218.66;4986433;28;97965;-71
2022/01/12 08:17:35;;;;;;;1999.90;999.90;;;;;;;-2.14;61.97;103219.00;4986262;28;96812;-71
2022/01/12 08:20:06;;;;;;;1999.90;999.90;;;;;;;-2.17;62.67;103216.06;4983912;28;98320;-72
2022/01/12 08:22:34;;;;;;;1999.90;999.90;;;;;;;-2.25;62.52;103222.06;4982805;28;97713;-71
2022/01/12 08:25:02;;;;;;;1999.90;999.90;;;;;;;-2.12;62.42;103232.19;4986623;28;97234;-71
2022/01/12 08:27:30;;;;;;;1999.90;999.90;;;;;;;-2.12;62.42;103225.31;4991477;28;97038;-71
2022/01/12 08:30:01;;;;;;;1999.90;999.90;;;;;;;-2.06;61.92;103235.50;4989435;28;98618;-71
2022/01/12 08:32:30;;;;;;;1999.90;999.90;;;;;;;-2.01;62.30;103226.50;4988467;28;97598;-71
2022/01/12 08:34:59;;;;;;;1999.90;999.90;;;;;;;-2.03;61.56;103230.59;4985651;28;98113;-72
2022/01/12 08:37:29;;;;;;;1999.90;999.90;;;;;;;-2.00;61.33;103229.25;4989439;28;98121;-71
2022/01/12 08:39:57;;;;;;;1999.90;999.90;;;;;;;-1.98;62.18;103232.97;4985304;28;100940;-72
2022/01/12 08:42:24;;;;;;;1999.90;999.90;;;;;;;-1.98;61.47;103239.91;4991149;28;98679;-71
2022/01/12 08:44:52;;;;;;;1999.90;999.90;;;;;;;-1.96;61.56;103233.13;5003426;28;96958;-71
2022/01/12 08:47:20;;;;;;;1999.90;999.90;;;;;;;-1.96;61.38;103234.06;4970057;28;97006;-70
2022/01/12 08:49:47;;;;;;;1999.90;999.90;;;;;;;-1.98;61.29;103238.19;4989333;28;97726;-71
2022/01/12 08:52:22;;;;;;;1999.90;999.90;;;;;;;-1.93;61.40;103236.09;4985662;28;98347;-72
2022/01/12 08:54:52;;;;;;;1999.90;999.90;;;;;;;-1.94;61.69;103243.00;4988151;28;96872;-71
2022/01/12 08:57:19;;;;;;;1999.90;999.90;;;;;;;-2.08;62.15;103242.22;4989699;28;97178;-72
2022/01/12 08:59:47;;;;;;;1999.90;999.90;;;;;;;-2.03;62.18;103241.97;4987669;28;99434;-72
2022/01/12 09:02:15;;;;;;;1999.90;999.90;;;;;;;-1.99;61.33;103238.97;4987085;28;100681;-71
2022/01/12 09:04:44;;;;;;;1999.90;999.90;;;;;;;-1.98;61.48;103237.28;4988757;28;97317;-72
2022/01/12 09:07:11;;;;;;;1999.90;999.90;;;;;;;-1.94;61.27;103236.84;4990252;28;98798;-71
2022/01/12 09:09:39;;;;;;;1999.90;999.90;;;;;;;-2.06;61.99;103236.44;4984338;28;98534;-71
2022/01/12 09:12:10;;;;;;;1999.90;999.90;;;;;;;-2.07;62.06;103239.78;4987744;28;97564;-72
2022/01/12 09:14:38;;;;;;;1999.90;999.90;;;;;;;-1.96;61.34;103240.97;5002894;28;96750;-73
2022/01/12 09:17:13;;;;;;;1999.90;999.90;;;;;;;-1.96;61.70;103239.28;4990162;28;97187;-70
2022/01/12 09:19:40;;;;;;;1999.90;999.90;;;;;;;-1.95;61.99;103232.38;4982997;28;98864;-71
2022/01/12 09:22:09;;;;;;;1999.90;999.90;;;;;;;-1.89;62.13;103230.47;4986243;28;98520;-71
2022/01/12 09:24:36;;;;;;;1999.90;999.90;;;;;;;-1.86;62.08;103236.00;4986923;28;96789;-72
2022/01/12 09:27:06;;;;;;;1999.90;999.90;;;;;;;-1.76;61.68;103231.03;4987619;28;97552;-72
2022/01/12 09:29:35;;;;;;;1999.90;999.90;;;;;;;-1.83;61.64;103246.78;4987966;28;97701;-71
2022/01/12 09:32:03;;;;;;;1999.90;999.90;;;;;;;-1.80;61.46;103234.09;4985551;28;97253;-71
2022/01/12 09:34:31;;;;;;;1999.90;999.90;;;;;;;-1.83;61.41;103225.91;4986907;28;98947;-71
2022/01/12 09:36:59;;;;;;;1999.90;999.90;;;;;;;-1.81;61.25;103213.94;4989370;28;97010;-72
2022/01/12 09:39:27;;;;;;;1999.90;999.90;;;;;;;-1.75;61.66;103221.53;4985381;28;98722;-70
2022/01/12 09:41:55;;;;;;;1999.90;999.90;;;;;;;-1.77;61.40;103220.41;4984332;28;99597;-72
2022/01/12 09:44:29;;;;;;;1999.90;999.90;;;;;;;-1.76;61.63;103227.50;4985289;28;97198;-74
2022/01/12 09:46:59;;;;;;;1999.90;999.90;;;;;;;-1.72;61.10;103216.66;4987609;28;97270;-72
2022/01/12 09:49:28;;;;;;;1999.90;999.90;;;;;;;-1.70;61.68;103230.78;4987142;28;97795;-71
2022/01/12 09:51:57;;;;;;;1999.90;999.90;;;;;;;-1.62;61.69;103233.47;4985484;28;97850;-71
2022/01/12 09:54:27;;;;;;;1999.90;999.90;;;;;;;-1.63;61.85;103236.81;4986040;28;96834;-71
2022/01/12 09:56:57;;;;;;;1999.90;999.90;;;;;;;-1.62;61.49;103237.75;4987854;28;96821;-71
2022/01/12 09:59:25;;;;;;;1999.90;999.90;;;;;;;-1.53;61.72;103238.75;4987692;28;97589;-72
2022/01/12 10:01:54;;;;;;;1999.90;999.90;;;;;;;-1.55;61.27;103246.44;4986478;28;97936;-72
2022/01/12 10:04:26;;;;;;;1999.90;999.90;;;;;;;-1.50;61.06;103240.00;4987088;28;97041;-71
2022/01/12 10:06:57;;;;;;;1999.90;999.90;;;;;;;-1.45;61.34;103249.25;4965783;28;96725;-71
2022/01/12 10:09:31;;;;;;;1999.90;999.90;;;;;;;-1.40;61.61;103258.53;4984945;28;100657;-70
2022/01/12 10:12:01;;;;;;;1999.90;999.90;;;;;;;-1.29;60.89;103247.56;4988460;28;98907;-70
2022/01/12 10:14:39;;;;;;;1999.90;999.90;;;;;;;-1.37;61.36;103239.66;4970177;28;96772;-71
2022/01/12 10:17:06;;;;;;;1999.90;999.90;;;;;;;-1.26;61.32;103233.91;4988412;28;96823;-72
2022/01/12 10:19:36;;;;;;;1999.90;999.90;;;;;;;-1.20;60.80;103231.94;4983097;28;98837;-75
2022/01/12 10:22:06;;;;;;;1999.90;999.90;;;;;;;-1.13;60.74;103229.22;4984136;28;97850;-74
2022/01/12 10:24:37;;;;;;;1999.90;999.90;;;;;;;-1.26;61.49;103226.06;4983372;28;97126;-69
2022/01/12 10:27:12;;;;;;;1999.90;999.90;;;;;;;-1.26;61.85;103226.06;4989616;28;96810;-70
2022/01/12 10:29:40;;;;;;;1999.90;999.90;;;;;;;-1.20;61.95;103225.06;4989179;28;97599;-71
2022/01/12 10:32:09;;;;;;;1999.90;999.90;;;;;;;-1.17;61.32;103221.81;4986187;28;97590;-69
2022/01/12 10:34:40;;;;;;;1999.90;999.90;;;;;;;-0.98;60.63;103216.13;4993690;28;97064;-73
2022/01/12 10:37:09;;;;;;;1999.90;999.90;;;;;;;-0.98;61.45;103223.97;4994851;28;97178;-73
2022/01/12 10:39:40;;;;;;;1999.90;999.90;;;;;;;-0.94;60.77;103225.22;4992205;28;98123;-72
2022/01/12 10:42:10;;;;;;;1999.90;999.90;;;;;;;-0.92;61.31;103226.25;4984931;28;99615;-74
2022/01/12 10:44:40;;;;;;;1999.90;999.90;;;;;;;-0.91;60.94;103222.91;4988535;28;98057;-74
2022/01/12 10:47:11;;;;;;;1999.90;999.90;;;;;;;-0.93;61.46;103221.81;4989119;28;97657;-74
2022/01/12 10:49:43;;;;;;;1999.90;999.90;;;;;;;-0.95;61.31;103226.88;5003656;28;100421;-72
2022/01/12 10:52:13;;;;;;;1999.90;999.90;;;;;;;-0.94;61.13;103226.13;4986722;28;98833;-74
2022/01/12 10:54:43;;;;;;;1999.90;999.90;;;;;;;-0.92;61.34;103219.34;4988090;28;96807;-73
2022/01/12 10:57:21;;;;;;;1999.90;999.90;;;;;;;-0.92;60.96;103223.66;4988282;28;97394;-72
2022/01/12 11:00:05;;;;;;;1999.90;999.90;;;;;;;-0.92;61.44;103226.25;4985960;28;96686;-72
2022/01/12 11:02:33;;;;;;;1999.90;999.90;;;;;;;-0.88;61.26;103223.22;4985580;28;99198;-73
2022/01/12 11:05:04;;;;;;;1999.90;999.90;;;;;;;-0.83;61.22;103211.59;4986970;28;96747;-71
2022/01/12 11:07:33;;;;;;;1999.90;999.90;;;;;;;-0.79;61.41;103218.97;4981289;28;97090;-73
2022/01/12 11:10:03;;;;;;;1999.90;999.90;;;;;;;-0.75;61.47;103226.38;4981132;28;99494;-73
2022/01/12 11:12:33;;;;;;;1999.90;999.90;;;;;;;-0.74;61.18;103223.00;4987129;28;97543;-70
2022/01/12 11:15:02;;;;;;;1999.90;999.90;;;;;;;-0.71;61.31;103227.63;4986338;28;96793;-70
2022/01/12 11:17:29;;;;;;;1999.90;999.90;;;;;;;-0.71;61.29;103218.09;4999934;28;96706;-73
2022/01/12 11:20:10;;;;;;;1999.90;999.90;;;;;;;-0.70;60.91;103225.16;4977051;28;96970;-72
2022/01/12 11:22:47;;;;;;;1999.90;999.90;;;;;;;-0.70;61.19;103213.78;4985792;28;97533;-73
2022/01/12 11:25:19;;;;;;;1999.90;999.90;;;;;;;-0.70;61.50;103216.41;4985803;28;98438;-73
2022/01/12 11:27:51;;;;;;;1999.90;999.90;;;;;;;-0.67;61.26;103214.09;5002690;28;97124;-71
2022/01/12 11:30:21;;;;;;;1999.90;999.90;;;;;;;-0.65;61.53;103221.34;4986758;28;100977;-72
2022/01/12 11:32:59;;;;;;;1999.90;999.90;;;;;;;-0.62;61.16;103224.28;4986688;28;98407;-73
2022/01/12 11:35:30;;;;;;;1999.90;999.90;;;;;;;-0.60;61.17;103225.38;4985318;28;96989;-74
2022/01/12 11:37:59;;;;;;;1999.90;999.90;;;;;;;-0.58;61.32;103221.22;4985421;28;96839;-73
2022/01/12 11:40:39;;;;;;;1999.90;999.90;;;;;;;-0.59;61.37;103224.59;4985082;28;100937;-74
2022/01/12 11:43:25;;;;;;;1999.90;999.90;;;;;;;-0.61;61.27;103220.00;4983385;28;99239;-74
2022/01/12 11:46:05;;;;;;;1999.90;999.90;;;;;;;-0.62;61.23;103218.13;5001028;28;96785;-73
2022/01/12 11:48:35;;;;;;;1999.90;999.90;;;;;;;-0.63;61.37;103219.84;4982594;28;97235;-72
2022/01/12 11:51:04;;;;;;;1999.90;999.90;;;;;;;-0.62;61.15;103220.72;4985640;28;100464;-74
2022/01/12 11:53:32;;;;;;;1999.90;999.90;;;;;;;-0.62;61.44;103223.34;4986472;28;98937;-72
2022/01/12 11:56:14;;;;;;;1999.90;999.90;;;;;;;-0.62;61.57;103216.44;4986757;28;96778;-75
2022/01/12 11:58:56;;;;;;;1999.90;999.90;;;;;;;-0.59;61.33;103213.22;4970474;28;97552;-75
2022/01/12 12:01:25;;;;;;;1999.90;999.90;;;;;;;-0.56;61.51;103209.25;4989837;28;98893;-73